createdAt,value
2018-06-19T00:00:02.440Z,61.80
2018-06-19T00:01:12.449Z,61.53
2018-06-19T00:02:17.124Z,62.05
2018-06-19T00:03:21.327Z,62.26
2018-06-19T00:04:25.576Z,61.93
2018-06-19T00:05:31.420Z,61.96
2018-06-19T00:06:35.803Z,62.35
2018-06-19T00:07:40.150Z,61.76
2018-06-19T00:08:44.343Z,62.04
2018-06-19T00:09:49.894Z,62.03
2018-06-19T00:10:54.102Z,61.80
2018-06-19T00:11:58.319Z,62.06
2018-06-19T00:13:02.577Z,61.78
2018-06-19T00:14:06.898Z,62.15
2018-06-19T00:15:11.143Z,62.06
2018-06-19T00:16:15.610Z,62.70
2018-06-19T00:17:19.889Z,62.56
2018-06-19T00:18:26.732Z,62.55
2018-06-19T00:19:31.786Z,62.10
2018-06-19T00:20:35.936Z,62.74
2018-06-19T00:21:48.323Z,62.35
2018-06-19T00:22:52.827Z,62.32
2018-06-19T00:23:57.098Z,62.84
2018-06-19T00:25:01.324Z,62.28
2018-06-19T00:26:05.779Z,62.73
2018-06-19T00:27:09.967Z,62.29
2018-06-19T00:28:14.197Z,62.55
2018-06-19T00:29:18.375Z,62.46
2018-06-19T00:30:22.692Z,62.48
2018-06-19T00:31:26.987Z,63.20
2018-06-19T00:32:31.187Z,62.71
2018-06-19T00:33:35.500Z,62.96
2018-06-19T00:34:39.687Z,62.90
2018-06-19T00:35:43.861Z,63.24
2018-06-19T00:36:48.113Z,63.41
2018-06-19T00:37:52.448Z,63.28
2018-06-19T00:38:56.988Z,63.39
2018-06-19T00:40:01.197Z,63.29
2018-06-19T00:41:05.664Z,63.75
2018-06-19T00:42:09.875Z,62.83
2018-06-19T00:43:14.075Z,63.78
2018-06-19T00:44:18.238Z,63.44
2018-06-19T00:45:22.488Z,63.96
2018-06-19T00:46:28.559Z,63.26
2018-06-19T00:47:32.779Z,63.60
2018-06-19T00:48:37.218Z,63.85
2018-06-19T00:49:41.454Z,64.01
2018-06-19T00:50:45.819Z,63.60
2018-06-19T00:51:50.154Z,63.60
2018-06-19T00:52:54.366Z,63.90
2018-06-19T00:53:58.514Z,63.63
2018-06-19T00:55:02.720Z,63.79
2018-06-19T00:56:18.104Z,63.89
2018-06-19T00:57:22.308Z,64.22
2018-06-19T00:58:26.614Z,64.20
2018-06-19T00:59:31.239Z,63.97
2018-06-19T01:00:35.440Z,64.06
2018-06-19T01:01:39.608Z,63.93
2018-06-19T01:02:43.824Z,63.75
2018-06-19T01:03:48.186Z,64.12
2018-06-19T01:04:52.363Z,63.50
2018-06-19T01:05:56.556Z,63.52
2018-06-19T01:07:00.804Z,64.03
2018-06-19T01:08:04.962Z,63.49
2018-06-19T01:09:09.984Z,63.99
2018-06-19T01:10:14.167Z,64.14
2018-06-19T01:11:18.375Z,63.56
2018-06-19T01:12:22.541Z,63.63
2018-06-19T01:13:26.742Z,63.87
2018-06-19T01:14:30.926Z,63.78
2018-06-19T01:15:35.117Z,63.58
2018-06-19T01:16:39.250Z,63.84
2018-06-19T01:17:43.522Z,63.64
2018-06-19T01:18:47.786Z,63.95
2018-06-19T01:19:52.148Z,63.99
2018-06-19T01:20:56.340Z,64.37
2018-06-19T01:22:00.531Z,63.71
2018-06-19T01:23:05.173Z,64.38
2018-06-19T01:24:09.468Z,63.95
2018-06-19T01:25:13.675Z,63.65
2018-06-19T01:26:18.372Z,63.74
2018-06-19T01:27:23.149Z,63.76
2018-06-19T01:28:27.434Z,64.36
2018-06-19T01:29:31.848Z,64.30
2018-06-19T01:30:36.106Z,64.20
2018-06-19T01:31:40.314Z,64.48
2018-06-19T01:32:44.480Z,64.14
2018-06-19T01:33:48.650Z,63.99
2018-06-19T01:34:52.886Z,64.37
2018-06-19T01:35:57.098Z,64.76
2018-06-19T01:37:01.823Z,64.70
2018-06-19T01:38:06.106Z,64.41
2018-06-19T01:39:11.069Z,64.42
2018-06-19T01:40:15.348Z,65.21
2018-06-19T01:41:20.112Z,64.88
2018-06-19T01:42:24.939Z,65.01
2018-06-19T01:43:29.459Z,64.79
2018-06-19T01:44:33.718Z,65.24
2018-06-19T01:45:37.891Z,65.23
2018-06-19T01:46:42.104Z,64.96
2018-06-19T01:47:46.248Z,65.17
2018-06-19T01:48:50.719Z,65.10
2018-06-19T01:49:55.108Z,65.23
2018-06-19T01:50:59.535Z,65.17
2018-06-19T01:52:03.780Z,64.98
2018-06-19T01:53:08.378Z,64.86
2018-06-19T01:54:12.611Z,64.89
2018-06-19T01:55:16.883Z,64.85
2018-06-19T01:56:21.157Z,64.66
2018-06-19T01:57:25.396Z,64.61
2018-06-19T01:58:29.675Z,64.19
2018-06-19T01:59:34.114Z,65.13
2018-06-19T02:00:38.293Z,64.51
2018-06-19T02:01:42.488Z,65.10
2018-06-19T02:02:46.713Z,65.07
2018-06-19T02:03:50.889Z,64.49
2018-06-19T02:04:55.094Z,64.73
2018-06-19T02:05:59.282Z,64.23
2018-06-19T02:07:03.492Z,64.99
2018-06-19T02:08:07.689Z,64.85
2018-06-19T02:09:11.948Z,64.77
2018-06-19T02:10:16.183Z,64.29
2018-06-19T02:11:20.416Z,65.01
2018-06-19T02:12:24.660Z,64.40
2018-06-19T02:13:29.107Z,64.88
2018-06-19T02:14:34.190Z,64.95
2018-06-19T02:15:38.583Z,64.33
2018-06-19T02:16:42.932Z,64.86
2018-06-19T02:17:47.100Z,64.05
2018-06-19T02:18:51.396Z,64.40
2018-06-19T02:19:55.720Z,64.75
2018-06-19T02:20:59.895Z,65.02
2018-06-19T02:22:04.123Z,65.04
2018-06-19T02:23:08.303Z,64.72
2018-06-19T02:24:13.088Z,64.93
2018-06-19T02:25:17.261Z,64.82
2018-06-19T02:26:21.487Z,65.20
2018-06-19T02:27:25.625Z,65.11
2018-06-19T02:28:29.894Z,64.74
2018-06-19T02:29:34.188Z,64.55
2018-06-19T02:30:39.185Z,64.92
2018-06-19T02:31:43.505Z,64.53
2018-06-19T02:32:47.712Z,64.23
2018-06-19T02:33:51.868Z,64.81
2018-06-19T02:34:56.480Z,64.92
2018-06-19T02:36:00.674Z,64.12
2018-06-19T02:37:04.959Z,64.29
2018-06-19T02:38:09.277Z,64.34
2018-06-19T02:39:13.519Z,64.36
2018-06-19T02:40:17.923Z,64.84
2018-06-19T02:41:22.286Z,65.07
2018-06-19T02:42:26.454Z,64.26
2018-06-19T02:43:30.665Z,64.73
2018-06-19T02:44:35.018Z,64.86
2018-06-19T02:45:39.296Z,64.57
2018-06-19T02:46:43.451Z,64.50
2018-06-19T02:47:48.003Z,64.45
2018-06-19T02:48:53.370Z,64.82
2018-06-19T02:49:57.529Z,64.47
2018-06-19T02:51:01.698Z,64.56
2018-06-19T02:52:06.200Z,64.82
2018-06-19T02:53:10.341Z,64.37
2018-06-19T02:54:14.571Z,64.40
2018-06-19T02:55:18.835Z,64.39
2018-06-19T02:56:23.017Z,65.02
2018-06-19T02:57:27.232Z,64.49
2018-06-19T02:58:31.724Z,65.49
2018-06-19T02:59:36.144Z,65.24
2018-06-19T03:00:40.361Z,65.10
2018-06-19T03:01:44.598Z,64.64
2018-06-19T03:02:48.815Z,64.62
2018-06-19T03:03:53.015Z,64.79
2018-06-19T03:04:57.200Z,64.76
2018-06-19T03:06:01.421Z,65.69
2018-06-19T03:07:05.630Z,64.83
2018-06-19T03:08:09.876Z,65.23
2018-06-19T03:09:14.212Z,65.28
2018-06-19T03:10:18.659Z,65.69
2018-06-19T03:11:22.889Z,65.13
2018-06-19T03:12:27.153Z,65.42
2018-06-19T03:13:31.365Z,65.45
2018-06-19T03:14:35.755Z,65.09
2018-06-19T03:15:39.911Z,65.56
2018-06-19T03:16:44.130Z,65.63
2018-06-19T03:17:48.309Z,65.91
2018-06-19T03:18:52.541Z,65.84
2018-06-19T03:19:56.745Z,65.81
2018-06-19T03:21:01.217Z,66.03
2018-06-19T03:22:05.583Z,65.32
2018-06-19T03:23:09.776Z,66.24
2018-06-19T03:24:13.963Z,65.13
2018-06-19T03:25:18.147Z,65.23
2018-06-19T03:26:22.312Z,65.21
2018-06-19T03:27:26.757Z,65.85
2018-06-19T03:28:31.031Z,65.12
2018-06-19T03:29:35.721Z,65.33
2018-06-19T03:30:39.887Z,65.29
2018-06-19T03:31:44.067Z,65.67
2018-06-19T03:32:48.252Z,64.65
2018-06-19T03:33:53.113Z,65.59
2018-06-19T03:34:57.422Z,65.63
2018-06-19T03:36:01.718Z,65.41
2018-06-19T03:37:05.903Z,65.39
2018-06-19T03:38:10.167Z,65.05
2018-06-19T03:39:14.443Z,64.99
2018-06-19T03:40:18.681Z,65.68
2018-06-19T03:41:22.958Z,64.97
2018-06-19T03:42:27.325Z,65.18
2018-06-19T03:43:31.635Z,65.33
2018-06-19T03:44:36.536Z,65.52
2018-06-19T03:45:41.140Z,65.70
2018-06-19T03:46:45.266Z,64.93
2018-06-19T03:47:49.481Z,65.02
2018-06-19T03:48:54.579Z,65.47
2018-06-19T03:49:58.762Z,64.92
2018-06-19T03:51:02.994Z,65.28
2018-06-19T03:52:07.204Z,65.27
2018-06-19T03:53:11.415Z,64.76
2018-06-19T03:54:15.686Z,64.95
2018-06-19T03:55:20.378Z,65.51
2018-06-19T03:56:24.803Z,65.12
2018-06-19T03:57:29.138Z,65.45
2018-06-19T03:58:33.405Z,65.16
2018-06-19T03:59:37.653Z,65.61
2018-06-19T04:00:41.955Z,65.23
2018-06-19T04:01:46.149Z,64.87
2018-06-19T04:02:51.050Z,65.04
2018-06-19T04:03:55.432Z,65.53
2018-06-19T04:04:59.878Z,65.16
2018-06-19T04:06:04.238Z,65.27
2018-06-19T04:07:08.527Z,65.57
2018-06-19T04:08:12.744Z,65.79
2018-06-19T04:09:17.003Z,65.55
2018-06-19T04:10:21.215Z,65.17
2018-06-19T04:11:25.585Z,65.48
2018-06-19T04:12:29.928Z,65.22
2018-06-19T04:13:34.216Z,64.88
2018-06-19T04:14:38.384Z,65.68
2018-06-19T04:15:42.570Z,65.03
2018-06-19T04:16:46.811Z,65.43
2018-06-19T04:17:51.031Z,65.17
2018-06-19T04:18:55.460Z,64.96
2018-06-19T04:19:59.832Z,65.19
2018-06-19T04:21:04.267Z,65.70
2018-06-19T04:22:08.459Z,66.20
2018-06-19T04:23:12.648Z,65.67
2018-06-19T04:24:16.854Z,65.20
2018-06-19T04:25:21.103Z,65.64
2018-06-19T04:26:25.262Z,64.91
2018-06-19T04:27:29.755Z,65.72
2018-06-19T04:28:33.924Z,64.92
2018-06-19T04:29:38.079Z,65.71
2018-06-19T04:30:42.255Z,65.19
2018-06-19T04:31:46.440Z,65.69
2018-06-19T04:32:50.656Z,65.22
2018-06-19T04:33:54.923Z,65.00
2018-06-19T04:34:59.170Z,65.77
2018-06-19T04:36:03.459Z,65.33
2018-06-19T04:37:07.720Z,65.56
2018-06-19T04:38:11.913Z,65.71
2018-06-19T04:39:16.180Z,65.08
2018-06-19T04:40:20.381Z,65.55
2018-06-19T04:41:24.560Z,65.01
2018-06-19T04:42:29.102Z,65.70
2018-06-19T04:43:33.647Z,65.39
2018-06-19T04:44:37.859Z,65.67
2018-06-19T04:45:42.136Z,65.98
2018-06-19T04:46:46.688Z,65.49
2018-06-19T04:47:50.867Z,65.66
2018-06-19T04:48:55.987Z,65.66
2018-06-19T04:50:00.204Z,65.52
2018-06-19T04:51:04.396Z,65.60
2018-06-19T04:52:08.636Z,66.13
2018-06-19T04:53:12.827Z,66.42
2018-06-19T04:54:17.148Z,66.11
2018-06-19T04:55:21.501Z,66.61
2018-06-19T04:56:25.768Z,66.89
2018-06-19T04:57:29.983Z,66.67
2018-06-19T04:58:34.236Z,66.13
2018-06-19T04:59:38.729Z,66.03
2018-06-19T05:00:43.029Z,66.85
2018-06-19T05:01:47.213Z,66.25
2018-06-19T05:02:51.453Z,66.25
2018-06-19T05:03:56.147Z,66.51
2018-06-19T05:05:00.187Z,67.09
2018-06-19T05:06:04.421Z,66.76
2018-06-19T05:07:08.657Z,67.07
2018-06-19T05:08:13.006Z,66.59
2018-06-19T05:09:17.546Z,66.75
2018-06-19T05:10:22.026Z,67.54
2018-06-19T05:11:26.339Z,67.30
2018-06-19T05:12:30.603Z,67.12
2018-06-19T05:13:35.035Z,67.37
2018-06-19T05:14:39.321Z,66.91
2018-06-19T05:15:43.778Z,67.37
2018-06-19T05:16:48.176Z,67.19
2018-06-19T05:17:52.342Z,66.78
2018-06-19T05:18:56.704Z,67.81
2018-06-19T05:20:00.997Z,67.32
2018-06-19T05:21:05.244Z,67.29
2018-06-19T05:22:09.517Z,66.84
2018-06-19T05:23:13.874Z,67.14
2018-06-19T05:24:18.198Z,67.04
2018-06-19T05:25:23.298Z,66.84
2018-06-19T05:26:27.723Z,67.26
2018-06-19T05:27:31.897Z,67.56
2018-06-19T05:28:36.243Z,67.54
2018-06-19T05:29:40.546Z,66.55
2018-06-19T05:30:44.894Z,67.47
2018-06-19T05:31:49.146Z,66.82
2018-06-19T05:32:54.525Z,66.69
2018-06-19T05:33:58.742Z,66.84
2018-06-19T05:35:03.081Z,67.15
2018-06-19T05:36:07.263Z,67.43
2018-06-19T05:37:12.248Z,66.86
2018-06-19T05:38:16.559Z,67.02
2018-06-19T05:39:20.995Z,67.00
2018-06-19T05:40:25.235Z,67.21
2018-06-19T05:41:29.587Z,67.40
2018-06-19T05:42:33.824Z,67.25
2018-06-19T05:43:38.063Z,67.00
2018-06-19T05:44:42.412Z,67.45
2018-06-19T05:45:46.664Z,67.04
2018-06-19T05:46:51.127Z,67.13
2018-06-19T05:47:55.397Z,67.12
2018-06-19T05:48:59.823Z,67.31
2018-06-19T05:50:04.285Z,66.93
2018-06-19T05:51:08.969Z,67.43
2018-06-19T05:52:13.318Z,67.79
2018-06-19T05:53:17.830Z,67.63
2018-06-19T05:54:22.064Z,67.91
2018-06-19T05:55:26.282Z,67.36
2018-06-19T05:56:30.654Z,67.93
2018-06-19T05:57:35.040Z,67.87
2018-06-19T05:58:39.323Z,67.55
2018-06-19T05:59:43.630Z,67.60
2018-06-19T06:00:47.861Z,68.28
2018-06-19T06:01:52.316Z,67.74
2018-06-19T06:02:56.516Z,67.84
2018-06-19T06:04:00.872Z,67.95
2018-06-19T06:05:05.244Z,67.46
2018-06-19T06:06:09.464Z,67.48
2018-06-19T06:07:14.139Z,67.88
2018-06-19T06:08:18.608Z,67.85
2018-06-19T06:09:23.020Z,67.03
2018-06-19T06:10:27.265Z,67.84
2018-06-19T06:11:32.535Z,67.62
2018-06-19T06:12:36.735Z,67.58
2018-06-19T06:13:40.900Z,67.40
2018-06-19T06:14:45.235Z,67.87
2018-06-19T06:15:49.394Z,67.43
2018-06-19T06:16:53.546Z,67.38
2018-06-19T06:17:57.751Z,67.57
2018-06-19T06:19:02.149Z,67.02
2018-06-19T06:20:06.818Z,67.05
2018-06-19T06:21:11.011Z,67.88
2018-06-19T06:22:15.277Z,67.14
2018-06-19T06:23:19.415Z,67.17
2018-06-19T06:24:23.617Z,67.46
2018-06-19T06:25:27.847Z,67.76
2018-06-19T06:26:32.059Z,67.46
2018-06-19T06:27:36.255Z,67.37
2018-06-19T06:28:40.421Z,67.40
2018-06-19T06:29:44.535Z,67.44
2018-06-19T06:30:48.876Z,67.28
2018-06-19T06:31:53.024Z,67.42
2018-06-19T06:32:57.587Z,67.28
2018-06-19T06:34:01.834Z,66.99
2018-06-19T06:35:06.068Z,67.68
2018-06-19T06:36:10.319Z,67.15
2018-06-19T06:37:14.551Z,67.40
2018-06-19T06:38:18.708Z,67.66
2018-06-19T06:39:23.032Z,67.69
2018-06-19T06:40:27.195Z,67.35
2018-06-19T06:41:31.633Z,67.00
2018-06-19T06:42:35.888Z,67.14
2018-06-19T06:43:40.061Z,67.56
2018-06-19T06:44:44.225Z,67.63
2018-06-19T06:45:48.489Z,67.30
2018-06-19T06:46:52.658Z,67.19
2018-06-19T06:47:56.878Z,67.62
2018-06-19T06:49:01.226Z,67.23
2018-06-19T06:50:05.495Z,67.47
2018-06-19T06:51:09.679Z,67.03
2018-06-19T06:52:13.810Z,67.71
2018-06-19T06:53:18.002Z,67.75
2018-06-19T06:54:22.405Z,67.31
2018-06-19T06:55:26.615Z,67.07
2018-06-19T06:56:30.997Z,67.89
2018-06-19T06:57:35.162Z,67.91
2018-06-19T06:58:39.317Z,67.78
2018-06-19T06:59:43.550Z,67.21
2018-06-19T07:00:48.041Z,67.55
2018-06-19T07:01:52.497Z,67.60
2018-06-19T07:02:56.704Z,67.16
2018-06-19T07:04:00.906Z,67.53
2018-06-19T07:05:05.101Z,67.65
2018-06-19T07:06:09.319Z,67.36
2018-06-19T07:07:13.523Z,67.40
2018-06-19T07:08:18.131Z,67.41
2018-06-19T07:09:22.312Z,67.75
2018-06-19T07:10:26.588Z,67.30
2018-06-19T07:11:30.809Z,67.89
2018-06-19T07:12:34.999Z,68.02
2018-06-19T07:13:39.207Z,67.24
2018-06-19T07:14:43.354Z,67.72
2018-06-19T07:15:47.872Z,67.27
2018-06-19T07:16:52.100Z,67.92
2018-06-19T07:17:56.297Z,67.45
2018-06-19T07:19:00.795Z,67.84
2018-06-19T07:20:04.980Z,67.24
2018-06-19T07:21:09.174Z,67.22
2018-06-19T07:22:13.330Z,67.99
2018-06-19T07:23:17.571Z,67.82
2018-06-19T07:24:21.950Z,67.64
2018-06-19T07:25:26.210Z,67.68
2018-06-19T07:26:30.404Z,68.11
2018-06-19T07:27:34.854Z,67.61
2018-06-19T07:28:39.043Z,67.87
2018-06-19T07:29:43.266Z,67.75
2018-06-19T07:30:47.482Z,67.71
2018-06-19T07:31:51.647Z,68.10
2018-06-19T07:32:55.963Z,68.04
2018-06-19T07:34:00.156Z,67.75
2018-06-19T07:35:04.460Z,67.72
2018-06-19T07:36:08.700Z,67.39
2018-06-19T07:37:12.868Z,68.14
2018-06-19T07:38:17.083Z,67.56
2018-06-19T07:39:21.335Z,67.37
2018-06-19T07:40:25.504Z,67.95
2018-06-19T07:41:29.768Z,68.08
2018-06-19T07:42:33.997Z,67.41
2018-06-19T07:43:38.407Z,67.41
2018-06-19T07:44:42.547Z,67.66
2018-06-19T07:45:46.784Z,68.00
2018-06-19T07:46:50.988Z,67.16
2018-06-19T07:47:55.139Z,67.52
2018-06-19T07:48:59.319Z,67.83
2018-06-19T07:50:04.050Z,67.50
2018-06-19T07:51:08.271Z,67.45
2018-06-19T07:52:12.422Z,67.11
2018-06-19T07:53:16.603Z,67.79
2018-06-19T07:54:20.735Z,67.33
2018-06-19T07:55:25.085Z,67.47
2018-06-19T07:56:29.315Z,67.44
2018-06-19T07:57:33.575Z,67.92
2018-06-19T07:58:37.789Z,67.79
2018-06-19T07:59:41.972Z,68.01
2018-06-19T08:00:46.282Z,67.99
2018-06-19T08:01:50.446Z,68.47
2018-06-19T08:02:54.756Z,68.53
2018-06-19T08:03:58.891Z,68.66
2018-06-19T08:05:03.679Z,68.26
2018-06-19T08:06:07.847Z,68.51
2018-06-19T08:07:12.899Z,68.01
2018-06-19T08:08:17.290Z,68.08
2018-06-19T08:09:21.538Z,68.66
2018-06-19T08:10:25.771Z,67.86
2018-06-19T08:11:29.960Z,68.07
2018-06-19T08:12:34.132Z,68.50
2018-06-19T08:13:38.339Z,68.26
2018-06-19T08:14:42.500Z,68.61
2018-06-19T08:15:46.681Z,69.00
2018-06-19T08:16:50.945Z,68.39
2018-06-19T08:17:55.211Z,69.16
2018-06-19T08:18:59.372Z,68.49
2018-06-19T08:20:03.634Z,68.89
2018-06-19T08:21:07.949Z,68.95
2018-06-19T08:22:12.144Z,69.38
2018-06-19T08:23:16.421Z,69.01
2018-06-19T08:24:20.556Z,68.98
2018-06-19T08:25:24.932Z,69.55
2018-06-19T08:26:29.085Z,68.93
2018-06-19T08:27:33.246Z,68.70
2018-06-19T08:28:37.412Z,69.38
2018-06-19T08:29:41.622Z,69.16
2018-06-19T08:30:45.865Z,68.94
2018-06-19T08:31:50.053Z,68.55
2018-06-19T08:32:54.311Z,68.81
2018-06-19T08:33:58.631Z,69.14
2018-06-19T08:35:02.826Z,69.15
2018-06-19T08:36:07.275Z,68.58
2018-06-19T08:37:11.781Z,68.57
2018-06-19T08:38:15.993Z,69.07
2018-06-19T08:39:20.199Z,68.84
2018-06-19T08:40:24.546Z,69.27
2018-06-19T08:41:28.756Z,68.83
2018-06-19T08:42:32.949Z,68.81
2018-06-19T08:43:37.367Z,68.97
2018-06-19T08:44:41.600Z,69.21
2018-06-19T08:45:45.792Z,69.15
2018-06-19T08:46:49.971Z,70.09
2018-06-19T08:47:54.258Z,69.43
2018-06-19T08:48:58.395Z,70.16
2018-06-19T08:50:02.895Z,70.01
2018-06-19T08:51:07.224Z,69.77
2018-06-19T08:52:11.375Z,69.90
2018-06-19T08:53:15.993Z,69.26
2018-06-19T08:54:20.499Z,69.55
2018-06-19T08:55:24.649Z,68.99
2018-06-19T08:56:29.115Z,68.76
2018-06-19T08:57:33.321Z,69.21
2018-06-19T08:58:37.499Z,69.34
2018-06-19T08:59:41.695Z,69.08
2018-06-19T09:00:45.911Z,68.49
2018-06-19T09:01:50.083Z,68.39
2018-06-19T09:02:54.553Z,68.74
2018-06-19T09:03:58.848Z,68.65
2018-06-19T09:05:03.236Z,68.34
2018-06-19T09:06:07.443Z,68.09
2018-06-19T09:07:11.698Z,68.01
2018-06-19T09:08:15.989Z,68.56
2018-06-19T09:09:20.171Z,67.88
2018-06-19T09:10:24.338Z,67.52
2018-06-19T09:11:28.591Z,67.96
2018-06-19T09:12:32.767Z,67.73
2018-06-19T09:13:36.961Z,67.79
2018-06-19T09:14:41.141Z,67.33
2018-06-19T09:15:45.422Z,67.76
2018-06-19T09:16:49.651Z,67.08
2018-06-19T09:17:53.893Z,67.36
2018-06-19T09:18:58.119Z,66.78
2018-06-19T09:20:02.423Z,66.66
2018-06-19T09:21:07.495Z,67.24
2018-06-19T09:22:11.726Z,66.50
2018-06-19T09:23:15.911Z,66.94
2018-06-19T09:24:20.243Z,66.90
2018-06-19T09:25:24.534Z,66.48
2018-06-19T09:26:28.769Z,66.39
2018-06-19T09:27:33.148Z,66.18
2018-06-19T09:28:37.702Z,66.15
2018-06-19T09:29:42.109Z,66.29
2018-06-19T09:30:46.458Z,66.21
2018-06-19T09:31:50.912Z,66.20
2018-06-19T09:32:55.175Z,66.61
2018-06-19T09:33:59.572Z,65.92
2018-06-19T09:35:04.432Z,66.13
2018-06-19T09:36:08.888Z,65.81
2018-06-19T09:37:13.177Z,66.38
2018-06-19T09:38:17.607Z,66.08
2018-06-19T09:39:21.808Z,65.73
2018-06-19T09:40:26.008Z,65.59
2018-06-19T09:41:30.238Z,65.90
2018-06-19T09:42:34.454Z,66.29
2018-06-19T09:43:38.667Z,66.12
2018-06-19T09:44:42.906Z,65.62
2018-06-19T09:45:47.135Z,66.04
2018-06-19T09:46:51.318Z,65.66
2018-06-19T09:47:55.512Z,66.05
2018-06-19T09:48:59.730Z,65.87
2018-06-19T09:50:04.084Z,65.34
2018-06-19T09:51:08.261Z,65.26
2018-06-19T09:52:12.418Z,65.33
2018-06-19T09:53:16.665Z,65.78
2018-06-19T09:54:21.023Z,65.28
2018-06-19T09:55:25.287Z,65.33
2018-06-19T09:56:29.479Z,65.68
2018-06-19T09:57:33.763Z,65.41
2018-06-19T09:58:38.070Z,65.94
2018-06-19T09:59:42.415Z,65.51
2018-06-19T10:00:46.689Z,65.52
2018-06-19T10:01:50.937Z,65.77
2018-06-19T10:02:55.457Z,65.54
2018-06-19T10:03:59.709Z,65.58
2018-06-19T10:05:04.048Z,65.67
2018-06-19T10:06:08.281Z,65.16
2018-06-19T10:07:12.531Z,65.00
2018-06-19T10:08:16.738Z,65.13
2018-06-19T10:09:20.965Z,65.69
2018-06-19T10:10:25.359Z,65.32
2018-06-19T10:11:29.757Z,65.47
2018-06-19T10:12:33.931Z,65.18
2018-06-19T10:13:38.179Z,64.81
2018-06-19T10:14:42.463Z,65.11
2018-06-19T10:15:46.945Z,65.69
2018-06-19T10:16:51.163Z,64.72
2018-06-19T10:17:55.347Z,64.96
2018-06-19T10:18:59.555Z,64.51
2018-06-19T10:20:03.847Z,64.20
2018-06-19T10:21:08.063Z,64.12
2018-06-19T10:22:12.571Z,64.36
2018-06-19T10:23:16.771Z,63.88
2018-06-19T10:24:20.987Z,64.21
2018-06-19T10:25:25.242Z,63.78
2018-06-19T10:26:29.460Z,63.69
2018-06-19T10:27:33.636Z,64.30
2018-06-19T10:28:37.898Z,64.12
2018-06-19T10:29:42.503Z,63.32
2018-06-19T10:30:47.295Z,63.80
2018-06-19T10:31:51.632Z,63.54
2018-06-19T10:32:55.886Z,63.26
2018-06-19T10:34:00.648Z,63.48
2018-06-19T10:35:05.045Z,63.20
2018-06-19T10:36:09.259Z,62.85
2018-06-19T10:37:13.503Z,62.76
2018-06-19T10:38:17.744Z,63.45
2018-06-19T10:39:21.981Z,62.85
2018-06-19T10:40:26.183Z,63.25
2018-06-19T10:41:30.455Z,63.10
2018-06-19T10:42:34.660Z,62.43
2018-06-19T10:43:38.893Z,62.69
2018-06-19T10:44:43.196Z,62.62
2018-06-19T10:45:47.418Z,62.71
2018-06-19T10:46:51.629Z,62.92
2018-06-19T10:47:55.972Z,62.25
2018-06-19T10:49:00.177Z,62.97
2018-06-19T10:50:04.653Z,63.01
2018-06-19T10:51:08.967Z,63.03
2018-06-19T10:52:13.232Z,62.98
2018-06-19T10:53:17.591Z,62.14
2018-06-19T10:54:21.854Z,62.01
2018-06-19T10:55:26.147Z,62.49
2018-06-19T10:56:30.579Z,62.09
2018-06-19T10:57:38.143Z,61.83
2018-06-19T10:58:42.334Z,61.74
2018-06-19T10:59:46.676Z,61.62
2018-06-19T11:00:50.827Z,62.13
2018-06-19T11:01:55.136Z,62.04
2018-06-19T11:02:59.340Z,61.50
2018-06-19T11:04:03.608Z,62.01
2018-06-19T11:05:07.812Z,61.62
2018-06-19T11:06:11.974Z,61.61
2018-06-19T11:07:16.270Z,62.30
2018-06-19T11:08:20.535Z,62.19
2018-06-19T11:09:24.758Z,61.53
2018-06-19T11:10:28.977Z,61.46
2018-06-19T11:11:33.387Z,61.62
2018-06-19T11:12:37.572Z,62.08
2018-06-19T11:13:41.727Z,62.09
2018-06-19T11:14:46.680Z,62.25
2018-06-19T11:15:50.854Z,62.30
2018-06-19T11:16:55.112Z,62.18
2018-06-19T11:17:59.316Z,61.83
2018-06-19T11:19:03.530Z,61.88
2018-06-19T11:20:08.712Z,62.19
2018-06-19T11:21:13.216Z,61.26
2018-06-19T11:22:17.521Z,61.55
2018-06-19T11:23:21.855Z,61.28
2018-06-19T11:24:26.143Z,61.46
2018-06-19T11:25:30.462Z,61.25
2018-06-19T11:26:34.769Z,60.52
2018-06-19T11:27:38.930Z,60.96
2018-06-19T11:28:43.139Z,61.01
2018-06-19T11:29:47.305Z,60.51
2018-06-19T11:30:51.525Z,60.89
2018-06-19T11:31:55.844Z,60.47
2018-06-19T11:33:00.087Z,60.58
2018-06-19T11:34:04.183Z,61.16
2018-06-19T11:35:08.473Z,60.78
2018-06-19T11:36:12.979Z,61.48
2018-06-19T11:37:17.475Z,61.30
2018-06-19T11:38:21.718Z,60.97
2018-06-19T11:39:25.880Z,61.54
2018-06-19T11:40:30.064Z,61.35
2018-06-19T11:41:34.274Z,60.91
2018-06-19T11:42:38.500Z,60.77
2018-06-19T11:43:42.799Z,61.43
2018-06-19T11:44:46.985Z,60.56
2018-06-19T11:45:51.139Z,60.94
2018-06-19T11:46:55.352Z,60.47
2018-06-19T11:47:59.502Z,60.69
2018-06-19T11:49:03.744Z,60.89
2018-06-19T11:50:08.294Z,60.11
2018-06-19T11:51:12.460Z,60.06
2018-06-19T11:52:16.695Z,60.25
2018-06-19T11:53:20.864Z,59.99
2018-06-19T11:54:25.127Z,59.82
2018-06-19T11:55:29.248Z,59.57
2018-06-19T11:56:33.423Z,59.36
2018-06-19T11:57:37.622Z,59.21
2018-06-19T11:58:41.788Z,59.13
2018-06-19T11:59:46.490Z,59.42
2018-06-19T12:00:51.183Z,59.04
2018-06-19T12:01:55.470Z,58.48
2018-06-19T12:02:59.949Z,58.56
2018-06-19T12:04:04.115Z,59.02
2018-06-19T12:05:08.608Z,58.45
2018-06-19T12:06:12.840Z,58.60
2018-06-19T12:07:17.140Z,59.00
2018-06-19T12:08:21.363Z,58.49
2018-06-19T12:09:25.571Z,58.80
2018-06-19T12:10:30.099Z,59.21
2018-06-19T12:11:34.279Z,59.41
2018-06-19T12:12:38.945Z,59.04
2018-06-19T12:13:43.216Z,59.77
2018-06-19T12:14:47.687Z,59.43
2018-06-19T12:15:51.970Z,59.80
2018-06-19T12:16:56.245Z,60.05
2018-06-19T12:18:00.692Z,59.77
2018-06-19T12:19:04.910Z,60.17
2018-06-19T12:20:09.647Z,60.81
2018-06-19T12:21:13.852Z,60.91
2018-06-19T12:22:18.025Z,60.57
2018-06-19T12:23:22.733Z,59.71
2018-06-19T12:24:26.952Z,59.65
2018-06-19T12:25:31.523Z,59.78
2018-06-19T12:26:35.787Z,59.85
2018-06-19T12:27:40.029Z,60.04
2018-06-19T12:28:44.232Z,59.60
2018-06-19T12:29:48.471Z,59.54
2018-06-19T12:30:52.734Z,59.27
2018-06-19T12:31:56.919Z,59.24
2018-06-19T12:33:01.091Z,58.42
2018-06-19T12:34:07.098Z,59.08
2018-06-19T12:35:15.194Z,58.99
2018-06-19T12:36:24.789Z,58.18
2018-06-19T12:37:29.645Z,58.56
2018-06-19T12:38:39.454Z,58.14
2018-06-19T12:39:45.325Z,58.80
2018-06-19T12:40:53.556Z,58.58
2018-06-19T12:42:00.473Z,58.32
2018-06-19T12:43:10.205Z,58.46
2018-06-19T12:44:17.298Z,58.64
2018-06-19T12:45:24.959Z,58.59
2018-06-19T12:46:31.091Z,58.20
2018-06-19T12:47:39.528Z,58.70
2018-06-19T12:48:45.381Z,58.32
2018-06-19T12:50:30.550Z,58.81
2018-06-19T12:51:51.499Z,58.58
2018-06-19T12:53:07.229Z,58.90
2018-06-19T12:54:22.601Z,58.71
2018-06-19T12:55:38.124Z,58.80
2018-06-19T12:56:42.398Z,59.57
2018-06-19T12:57:46.812Z,59.38
2018-06-19T12:58:51.034Z,59.57
2018-06-19T12:59:55.301Z,59.43
2018-06-19T13:00:59.467Z,59.08
2018-06-19T13:02:03.631Z,59.18
2018-06-19T13:03:19.153Z,59.41
2018-06-19T13:04:34.661Z,59.54
2018-06-19T13:05:50.352Z,59.21
2018-06-19T13:06:54.601Z,58.87
2018-06-19T13:07:58.840Z,59.45
2018-06-19T13:09:03.339Z,59.40
2018-06-19T13:10:07.783Z,59.14
2018-06-19T13:11:12.068Z,59.47
2018-06-19T13:12:27.393Z,58.72
2018-06-19T13:13:42.815Z,58.76
2018-06-19T13:14:47.041Z,59.05
2018-06-19T13:15:52.364Z,58.30
2018-06-19T13:17:07.927Z,58.27
2018-06-19T13:18:23.484Z,58.47
2018-06-19T13:19:38.859Z,58.91
2018-06-19T13:20:48.386Z,58.95
2018-06-19T13:21:53.137Z,58.88
2018-06-19T13:22:57.382Z,58.58
2018-06-19T13:24:01.589Z,59.27
2018-06-19T13:25:05.836Z,59.03
2018-06-19T13:26:10.234Z,58.11
2018-06-19T13:27:14.420Z,58.32
2018-06-19T13:28:18.670Z,58.66
2018-06-19T13:29:44.456Z,58.67
2018-06-19T13:30:59.791Z,58.34
2018-06-19T13:32:04.823Z,57.94
2018-06-19T13:33:09.192Z,58.24
2018-06-19T13:34:13.411Z,58.29
2018-06-19T13:35:18.105Z,58.55
2018-06-19T13:36:22.586Z,58.32
2018-06-19T13:37:26.772Z,58.22
2018-06-19T13:38:30.939Z,57.92
2018-06-19T13:39:35.804Z,58.50
2018-06-19T13:41:18.343Z,58.71
2018-06-19T13:42:33.763Z,58.03
2018-06-19T13:43:49.078Z,58.74
2018-06-19T13:44:59.096Z,58.68
2018-06-19T13:46:03.292Z,57.91
2018-06-19T13:47:07.495Z,58.03
2018-06-19T13:48:11.747Z,57.77
2018-06-19T13:49:15.951Z,57.79
2018-06-19T13:50:20.200Z,58.50
2018-06-19T13:51:24.391Z,58.07
2018-06-19T13:52:28.756Z,58.25
2018-06-19T13:53:33.009Z,58.32